Latest Weather Observations for Jervois

IDD60801

Issued at 5:51 pm CST Friday 23 October 2020 (issued every 10 minutes, with the page automatically refreshed every 10 minutes)

About weather observations | Map of weather stations | Latest weather observations for NT | Other Formats
Station Details ID: 015602 Name: JERVOIS Lat: -22.95 Lon: 136.14 Height: 328.0 m
Data from the previous 72 hours. | See also: Recent months at Jervois
Date/Time
CST
Temp
°C
App
Temp
°C
Dew
Point
°C
Rel
Hum
%
Delta-T
°C
Wind Press
QNH
hPa
Press
MSL
hPa
Rain since
9am
mm
Dir  Spd
km/h
Gust
km/h
Spd
kts
Gust
kts
23/05:30pm 35.3 29.4 3.8 14 16.9 SSW 24 37 13 20 1004.0 1002.3 0.2
23/05:00pm 36.4 31.4 3.6 13 17.5 SSW 19 32 10 17 1003.5 1001.7 0.2
23/04:30pm 36.6 30.9 2.6 12 18.0 SW 22 32 12 17 1003.3 1001.5 0.2
23/04:00pm 37.2 31.9 3.1 12 18.2 SSW 20 33 11 18 1003.3 1001.5 0.2
23/03:30pm 37.1 30.5 1.8 11 18.5 WSW 26 44 14 24 1003.6 1001.9 0.2
23/03:00pm 38.1 32.9 3.8 12 18.6 WSW 20 30 11 16 1004.1 1002.4 0.2
23/02:30pm 38.0 32.6 2.5 11 18.9 W 20 33 11 18 1004.5 1002.8 0.2
23/02:00pm 37.3 31.1 4.3 13 17.9 WSW 26 44 14 24 1005.1 1003.3 0.2
23/01:30pm 37.6 31.4 4.5 13 18.1 W 26 41 14 22 1005.6 1003.8 0.2
23/01:00pm 37.3 31.4 7.3 16 17.1 W 28 44 15 24 1006.0 1004.2 0.2
23/12:43pm 36.1 30.1 7.2 17 16.3 W 28 46 15 25 1006.5 1004.8 0.2
23/12:30pm 35.6 31.1 9.9 21 15.1 W 24 43 13 23 1006.8 1005.1 0.2
23/12:00pm 35.5 31.1 11.8 24 14.3 WSW 26 43 14 23 1007.1 1005.4 0.2
23/11:41am 35.2 30.2 10.9 23 14.4 W 28 48 15 26 1007.2 1005.5 0.2
23/11:30am 34.9 31.0 12.0 25 13.9 W 24 37 13 20 1007.3 1005.6 0.2
23/11:05am 34.5 29.9 12.2 26 13.5 W 28 46 15 25 1007.5 1005.8 0.2
23/11:00am 34.6 30.0 12.3 26 13.5 W 28 41 15 22 1007.6 1005.9 0.2
23/10:41am 34.0 29.1 12.4 27 13.1 WNW 30 48 16 26 1007.9 1006.2 0.2
23/10:30am 33.9 29.7 13.4 29 12.6 WNW 28 43 15 23 1008.0 1006.3 0.2
23/10:00am 33.2 28.1 13.8 31 11.9 WNW 33 52 18 28 1008.3 1006.5 0.0
23/09:30am 32.6 27.7 14.2 32 11.4 NW 33 52 18 28 1008.2 1006.4 0.0
23/09:00am 32.0 28.1 15.5 37 10.4 NW 30 52 16 28 1008.4 1006.6 0.0
23/08:56am 31.2 26.5 14.8 37 10.2 NW 33 52 18 28 1008.4 1006.6 0.0
23/08:30am 30.7 26.7 15.2 39 9.7 NW 30 43 16 23 1008.5 1006.7 0.0
23/08:08am 30.3 26.2 14.8 39 9.6 NW 30 48 16 26 1008.3 1006.5 0.0
23/08:00am 30.2 25.8 15.1 40 9.4 NW 32 44 17 24 1008.3 1006.5 0.0
23/07:30am 29.1 25.0 14.9 42 8.8 NNW 30 50 16 27 1007.9 1006.2 0.0
23/07:01am 28.6 24.3 14.4 41 8.7 NNW 30 50 16 27 1007.9 1006.2 0.0
23/07:00am 28.6 24.7 14.4 41 8.7 NNW 28 44 15 24 1007.9 1006.2 0.0
23/06:30am 28.3 24.8 13.4 40 9.0 NNW 24 39 13 21 1007.2 1005.5 0.0
23/06:00am 28.1 25.1 12.5 38 9.3 NW 20 30 11 16 1006.7 1005.0 0.0
23/05:30am 28.5 25.4 11.6 35 9.9 NW 19 28 10 15 1006.3 1004.6 0.0
23/05:00am 26.2 25.0 14.0 47 7.3 NNW 13 17 7 9 1006.2 1004.4 0.0
23/04:30am 25.3 25.7 16.4 57 5.6 NNW 9 11 5 6 1005.7 1003.9 0.0
23/04:00am 26.1 26.3 15.8 53 6.4 NNE 9 11 5 6 1005.2 1003.4 0.0
23/03:30am 27.4 26.5 14.8 46 7.7 N 13 15 7 8 1005.2 1003.4 0.0
23/03:00am 26.4 27.2 17.2 57 5.8 N 9 11 5 6 1005.4 1003.6 0.0
23/02:30am 27.1 26.7 16.1 51 6.9 NE 13 15 7 8 1005.4 1003.6 0.0
23/02:00am 28.9 27.3 11.5 34 10.2 N 11 15 6 8 1005.8 1004.0 0.0
23/01:30am 29.9 28.0 10.5 30 11.2 NE 11 17 6 9 1006.3 1004.6 0.0
23/01:00am 28.6 28.0 10.3 32 10.5 NNE 4 9 2 5 1006.9 1005.2 0.0
23/12:30am 29.6 28.4 9.7 29 11.4 NNW 6 9 3 5 1006.4 1004.7 0.0
23/12:00am 30.1 27.8 9.1 27 11.9 N 11 13 6 7 1006.7 1005.0 0.0
 
Date/Time
CST
Temp
°C
App
Temp
°C
Dew
Point
°C
Rel
Hum
%
Delta-T
°C
Wind Press
QNH
hPa
Press
MSL
hPa
Rain since
9am
mm
Dir  Spd
km/h
Gust
km/h
Spd
kts
Gust
kts
22/11:30pm 30.7 27.9 8.4 25 12.5 NW 13 20 7 11 1007.6 1005.9 0.0
22/11:00pm 30.9 28.0 8.0 24 12.8 NW 13 19 7 10 1007.8 1006.1 0.0
22/10:30pm 32.4 29.5 8.0 22 13.7 W 13 24 7 13 1007.4 1005.7 0.0
22/10:00pm 31.4 25.7 8.4 24 12.9 WNW 28 46 15 25 1008.0 1006.3 0.0
22/09:30pm 33.0 27.6 7.8 21 14.2 WNW 26 46 14 25 1008.0 1006.3 0.0
22/09:00pm 35.1 27.5 2.6 13 17.0 NW 32 54 17 29 1006.8 1005.1 0.0
22/08:52pm 35.3 28.8 2.7 13 17.1 NW 26 48 14 26 1006.9 1005.2 0.0
22/08:48pm 35.7 29.5 1.9 12 17.5 NW 24 48 13 26 1006.7 1005.0 0.0
22/08:30pm 36.3 30.3 1.2 11 18.1 NW 22 35 12 19 1006.4 1004.7 0.0
22/08:00pm 35.4 32.0 3.9 14 16.8 NW 11 17 6 9 1005.8 1004.0 0.0
22/07:30pm 35.9 32.2 4.2 14 17.1 NW 13 17 7 9 1005.4 1003.6 0.0
22/07:00pm 36.2 31.9 3.4 13 17.5 NW 15 20 8 11 1005.0 1003.2 0.0
22/06:30pm 36.9 31.6 2.8 12 18.1 NW 20 32 11 17 1004.5 1002.8 0.0
22/06:00pm 37.3 30.7 1.9 11 18.6 NW 26 37 14 20 1003.9 1002.2 0.0
22/05:30pm 37.8 31.8 3.5 12 18.5 NW 24 41 13 22 1003.4 1001.6 0.0
22/05:00pm 39.2 32.8 3.4 11 19.4 NW 26 39 14 21 1003.0 1001.2 0.0
22/04:30pm 40.3 33.8 2.8 10 20.3 NW 26 41 14 22 1002.9 1001.1 0.0
22/04:00pm 40.0 35.3 1.1 9 20.4 NW 15 24 8 13 1003.2 1001.4 0.0
22/03:30pm 40.6 35.3 1.6 9 20.8 WNW 19 32 10 17 1003.7 1002.0 0.0
22/03:00pm 40.2 34.6 1.3 9 20.6 NW 20 37 11 20 1004.1 1002.4 0.0
22/02:30pm 41.0 35.5 1.9 9 21.0 NW 20 35 11 19 1004.3 1002.6 0.0
22/02:00pm 41.0 35.5 1.9 9 20.9 N 20 32 11 17 1004.6 1002.9 0.0
22/01:30pm 41.7 37.4 0.8 8 21.6 NNW 13 24 7 13 1005.2 1003.4 0.0
22/01:00pm 40.9 35.0 1.8 9 20.8 NNW 22 41 12 22 1005.8 1004.0 0.0
22/12:30pm 40.5 34.8 3.0 10 20.4 N 22 33 12 18 1006.2 1004.4 0.0
22/12:00pm 39.5 34.3 2.2 10 19.9 N 19 28 10 15 1007.0 1005.3 0.0
22/11:30am 38.9 33.0 1.8 10 19.6 N 22 39 12 21 1007.5 1005.8 0.0
22/11:00am 39.1 33.5 3.3 11 19.3 NNW 22 32 12 17 1008.2 1006.4 0.0
22/10:30am 37.9 32.9 3.6 12 18.5 N 19 32 10 17 1008.7 1006.9 0.0
22/10:00am 37.1 33.1 3.0 12 18.1 NNE 13 24 7 13 1009.1 1007.4 0.0
22/09:30am 34.9 32.5 4.4 15 16.4 NE 6 13 3 7 1009.8 1008.1 0.0
22/09:00am 34.6 33.9 6.8 18 15.5 CALM 0 6 0 3 1010.3 1008.6 0.0
22/08:30am 32.1 30.7 9.0 24 13.2 WNW 6 9 3 5 1010.5 1008.8 0.0
22/08:00am 29.3 29.6 12.3 35 10.1 SW 2 6 1 3 1010.3 1008.6 0.0
22/07:30am 27.7 28.5 13.6 42 8.5 WNW 2 7 1 4 1010.2 1008.5 0.0
22/07:00am 25.8 26.9 13.6 47 7.3 CALM 0 6 0 3 1009.8 1008.1 0.0
22/06:30am 23.1 24.5 14.4 58 5.2 CALM 0 13 0 7 1009.5 1007.8 0.0
22/06:00am 21.9 21.4 12.7 56 5.3 W 7 11 4 6 1009.3 1007.6 0.0
22/05:30am 22.8 22.3 12.7 53 5.9 WNW 7 11 4 6 1009.0 1007.3 0.0
22/05:00am 22.9 22.4 12.8 53 5.9 NW 7 11 4 6 1008.6 1006.8 0.0
22/04:30am 21.8 21.3 13.9 61 4.7 WNW 9 15 5 8 1008.6 1006.8 0.0
22/04:00am 21.9 22.1 14.8 64 4.3 N 7 9 4 5 1008.0 1006.3 0.0
22/03:30am 21.6 23.4 15.4 68 3.8 CALM 0 0 0 0 1007.6 1005.9 0.0
22/03:00am 21.6 23.4 15.4 68 3.8 CALM 0 0 0 0 1007.7 1006.0 0.0
22/02:30am 21.4 23.1 15.3 68 3.7 CALM 0 0 0 0 1007.8 1006.1 0.0
22/02:00am 21.7 23.4 15.3 67 3.9 CALM 0 0 0 0 1007.9 1006.2 0.0
22/01:30am 22.4 23.8 14.3 60 4.8 CALM 0 0 0 0 1008.4 1006.6 0.0
22/01:00am 23.8 25.0 13.9 54 5.9 CALM 0 6 0 3 1008.6 1006.8 0.0
22/12:30am 24.9 25.0 13.8 50 6.6 SW 6 7 3 4 1008.8 1007.0 0.0
22/12:00am 25.7 26.6 13.9 48 7.1 NNW 2 7 1 4 1009.1 1007.4 0.0
 
Date/Time
CST
Temp
°C
App
Temp
°C
Dew
Point
°C
Rel
Hum
%
Delta-T
°C
Wind Press
QNH
hPa
Press
MSL
hPa
Rain since
9am
mm
Dir  Spd
km/h
Gust
km/h
Spd
kts
Gust
kts
21/11:30pm 26.3 26.2 13.4 45 7.7 NNW 6 9 3 5 1009.3 1007.6 0.0
21/11:00pm 25.1 26.0 13.9 49 6.7 SW 2 11 1 6 1010.0 1008.3 0.0
21/10:30pm 24.8 25.5 13.4 49 6.8 SW 2 7 1 4 1010.1 1008.4 0.0
21/10:00pm 25.6 26.6 13.1 46 7.4 CALM 0 0 0 0 1009.9 1008.2 0.0
21/09:30pm 27.5 27.3 11.9 38 9.1 SSW 4 6 2 3 1010.1 1008.4 0.0
21/09:00pm 28.6 26.8 12.1 36 9.7 SSW 13 19 7 10 1010.1 1008.4 0.0
21/08:30pm 30.1 26.7 10.6 30 11.3 SSW 19 33 10 18 1010.1 1008.4 0.0
21/08:00pm 29.6 29.6 9.7 29 11.3 CALM 0 2 0 1 1009.2 1007.5 0.0
21/07:30pm 30.7 28.8 9.0 26 12.3 NNE 9 11 5 6 1008.8 1007.0 0.0
21/07:00pm 31.2 29.1 8.2 24 12.9 NE 9 11 5 6 1008.4 1006.6 0.0
21/06:30pm 32.5 30.2 7.4 21 14.0 NE 9 11 5 6 1008.2 1006.4 0.0
21/06:00pm 34.3 31.4 6.6 18 15.4 NE 11 15 6 8 1008.2 1006.4 0.0
21/05:30pm 36.3 33.4 4.6 14 17.2 NNW 9 17 5 9 1007.9 1006.2 0.0
21/05:00pm 35.7 31.4 5.1 15 16.7 N 17 28 9 15 1008.0 1006.3 0.0
21/04:30pm 36.5 33.6 4.7 14 17.3 NNE 9 15 5 8 1008.0 1006.3 0.0
21/04:00pm 36.1 33.2 4.4 14 17.1 ESE 9 15 5 8 1008.3 1006.5 0.0
21/03:30pm 36.3 32.6 4.6 14 17.2 ENE 13 24 7 13 1008.4 1006.6 0.0
21/03:00pm 35.9 32.2 4.2 14 17.1 E 13 24 7 13 1008.9 1007.1 0.0
21/02:30pm 35.5 32.5 5.8 16 16.4 E 11 17 6 9 1009.2 1007.5 0.0
21/02:00pm 35.0 32.8 7.9 19 15.4 ESE 9 15 5 8 1009.8 1008.1 0.0
21/01:30pm 33.4 32.5 11.3 26 13.1 ESE 7 13 4 7 1010.3 1008.6 0.0
21/01:00pm 30.0 28.2 14.5 38 9.5 SE 17 26 9 14 1010.9 1009.2 0.0
21/12:30pm 33.6 31.5 6.8 19 14.9 NNE 7 17 4 9 1011.5 1009.7 0.0
21/12:06pm 32.9 29.2 6.2 19 14.6 WNW 15 35 8 19 1012.0 1010.3 0.0
21/12:00pm 33.9 31.9 6.3 18 15.2 W 6 11 3 6 1012.2 1010.5 0.0
21/11:30am 35.3 31.1 5.7 16 16.3 NE 17 26 9 14 1011.6 1009.8 0.0
21/11:00am 34.8 30.5 7.0 18 15.5 ENE 19 28 10 15 1012.0 1010.3 0.0
21/10:30am 34.6 30.6 8.4 20 15.0 NE 19 32 10 17 1012.5 1010.8 0.0
21/10:00am 33.9 29.4 8.5 21 14.5 ENE 22 32 12 17 1012.7 1011.0 0.0
21/09:30am 32.4 28.3 8.6 23 13.5 E 20 30 11 16 1012.5 1010.8 0.0
21/09:00am 30.1 25.6 10.1 29 11.5 NNE 24 39 13 21 1012.4 1010.7 0.0
21/08:30am 30.3 26.5 9.8 28 11.7 N 20 32 11 17 1013.1 1011.4 0.0
21/08:00am 27.5 24.7 11.5 37 9.3 NW 17 26 9 14 1013.6 1011.9 0.0
21/07:30am 25.7 26.0 13.5 46 7.3 NE 4 13 2 7 1012.7 1011.0 0.0
21/07:00am 23.9 22.1 13.4 51 6.2 NNE 15 20 8 11 1012.3 1010.6 0.0
21/06:30am 24.9 23.5 12.2 45 7.4 ESE 11 17 6 9 1012.5 1010.8 0.0
21/06:00am 23.3 22.5 14.0 56 5.5 ESE 11 20 6 11 1012.3 1010.6 0.0
21/05:30am 21.5 23.2 15.3 68 3.7 CALM 0 0 0 0 1012.3 1010.6 0.0
21/05:00am 21.3 21.6 14.9 67 3.8 NNW 7 9 4 5 1010.9 1009.2 0.0
21/04:30am 21.6 23.3 15.2 67 3.9 CALM 0 0 0 0 1010.9 1009.2 0.0
21/04:00am 22.4 23.6 13.7 58 5.1 CALM 0 0 0 0 1010.9 1009.2 0.0
21/03:30am 23.3 24.3 13.2 53 5.9 CALM 0 0 0 0 1010.7 1009.0 0.0
21/03:00am 23.8 23.6 11.8 47 6.9 S 4 9 2 5 1010.8 1009.1 0.0
21/02:30am 23.2 22.7 11.9 49 6.5 SW 6 7 3 4 1011.1 1009.4 0.0
21/02:00am 23.6 22.9 12.0 48 6.7 S 7 11 4 6 1011.0 1009.3 0.0
21/01:30am 21.5 22.8 14.2 63 4.3 CALM 0 7 0 4 1010.8 1009.1 0.0
21/01:00am 22.5 22.9 13.6 57 5.2 NW 4 6 2 3 1010.9 1009.2 0.0
21/12:30am 23.0 22.8 12.9 53 5.9 NW 6 9 3 5 1011.2 1009.5 0.0
21/12:00am 22.8 22.8 13.6 56 5.4 N 6 6 3 3 1011.5 1009.7 0.0
 
Date/Time
CST
Temp
°C
App
Temp
°C
Dew
Point
°C
Rel
Hum
%
Delta-T
°C
Wind Press
QNH
hPa
Press
MSL
hPa
Rain since
9am
mm
Dir  Spd
km/h
Gust
km/h
Spd
kts
Gust
kts
20/11:30pm 23.1 24.2 16.6 67 4.0 N 6 7 3 4 1011.5 1009.7 0.0
20/11:00pm 23.4 24.0 15.7 62 4.7 N 7 9 4 5 1011.7 1010.0 0.0
20/10:30pm 23.7 24.8 16.7 65 4.4 N 6 7 3 4 1011.7 1010.0 0.0
20/10:00pm 24.5 25.0 15.1 55 5.7 N 6 7 3 4 1011.9 1010.2 0.0
20/09:30pm 24.7 25.3 15.9 58 5.4 N 7 9 4 5 1011.9 1010.2 0.0
20/09:00pm 25.4 26.9 17.6 62 5.0 N 6 7 3 4 1011.6 1009.8 0.0
20/08:30pm 25.8 28.0 16.4 56 5.9 CALM 0 0 0 0 1011.5 1009.7 0.0
20/08:00pm 26.7 28.3 14.8 48 7.3 CALM 0 0 0 0 1011.1 1009.4 0.0
20/07:30pm 27.7 28.1 14.7 45 8.0 N 6 6 3 3 1010.8 1009.1 0.0
20/07:00pm 29.0 28.7 13.2 37 9.5 N 7 9 4 5 1010.6 1008.9 0.0
20/06:30pm 30.8 30.0 11.2 30 11.5 N 6 7 3 4 1010.6 1008.9 0.0
20/06:00pm 32.2 30.5 9.7 25 13.0 N 9 13 5 7 1010.6 1008.9 0.0

Other formats

Comma delimited format used in spreadsheet applications
http://www.bom.gov.au/fwo/IDD60801/IDD60801.94327.axf

JavaScript Object Notation format (JSON) in row-major order
http://www.bom.gov.au/fwo/IDD60801/IDD60801.94327.json

Data quality

Most of these data are generated automatically and are frequently updated. Quality checks on data are not normally performed. It is possible for incorrect values to appear. Refer to information at About Latest Weather Observations and please check the disclaimer before using these data.